sensor_id;sensor_type;location;lat;lon;timestamp;temperature;humidity
37806;DHT22;25082;50.870;0.022;2023-12-20T00:01:25;18.60;64.80
37806;DHT22;25082;50.870;0.022;2023-12-20T00:03:51;18.60;64.80
37806;DHT22;25082;50.870;0.022;2023-12-20T00:06:16;18.60;64.80
37806;DHT22;25082;50.870;0.022;2023-12-20T00:08:42;18.60;64.80
37806;DHT22;25082;50.870;0.022;2023-12-20T00:11:09;18.60;64.80
37806;DHT22;25082;50.870;0.022;2023-12-20T00:13:35;18.60;64.80
37806;DHT22;25082;50.870;0.022;2023-12-20T00:16:01;18.60;64.80
37806;DHT22;25082;50.870;0.022;2023-12-20T00:18:26;18.60;64.80
37806;DHT22;25082;50.870;0.022;2023-12-20T00:20:52;18.50;64.70
37806;DHT22;25082;50.870;0.022;2023-12-20T00:23:18;18.50;64.70
37806;DHT22;25082;50.870;0.022;2023-12-20T00:25:43;18.50;64.70
37806;DHT22;25082;50.870;0.022;2023-12-20T00:28:09;18.50;64.70
37806;DHT22;25082;50.870;0.022;2023-12-20T00:30:35;18.50;64.70
37806;DHT22;25082;50.870;0.022;2023-12-20T00:33:01;18.50;64.70
37806;DHT22;25082;50.870;0.022;2023-12-20T00:35:27;18.50;64.60
37806;DHT22;25082;50.870;0.022;2023-12-20T00:37:53;18.50;64.70
37806;DHT22;25082;50.870;0.022;2023-12-20T00:40:19;18.50;64.70
37806;DHT22;25082;50.870;0.022;2023-12-20T00:42:46;18.40;64.60
37806;DHT22;25082;50.870;0.022;2023-12-20T00:45:12;18.40;64.60
37806;DHT22;25082;50.870;0.022;2023-12-20T00:47:38;18.50;64.70
37806;DHT22;25082;50.870;0.022;2023-12-20T00:50:04;18.40;64.60
37806;DHT22;25082;50.870;0.022;2023-12-20T00:52:30;18.40;64.50
37806;DHT22;25082;50.870;0.022;2023-12-20T00:54:56;18.40;64.60
37806;DHT22;25082;50.870;0.022;2023-12-20T00:57:22;18.30;64.50
37806;DHT22;25082;50.870;0.022;2023-12-20T00:59:47;18.40;64.50
37806;DHT22;25082;50.870;0.022;2023-12-20T01:02:13;18.40;64.60
37806;DHT22;25082;50.870;0.022;2023-12-20T01:04:39;18.30;64.60
37806;DHT22;25082;50.870;0.022;2023-12-20T01:07:05;18.30;64.60
37806;DHT22;25082;50.870;0.022;2023-12-20T01:09:30;18.30;64.50
37806;DHT22;25082;50.870;0.022;2023-12-20T01:11:56;18.30;64.60
37806;DHT22;25082;50.870;0.022;2023-12-20T01:14:22;18.30;64.60
37806;DHT22;25082;50.870;0.022;2023-12-20T01:16:47;18.30;64.60
37806;DHT22;25082;50.870;0.022;2023-12-20T01:19:13;18.30;64.60
37806;DHT22;25082;50.870;0.022;2023-12-20T01:21:40;18.30;64.60
37806;DHT22;25082;50.870;0.022;2023-12-20T01:24:06;18.30;64.60
37806;DHT22;25082;50.870;0.022;2023-12-20T01:26:32;18.20;64.50
37806;DHT22;25082;50.870;0.022;2023-12-20T01:28:57;18.20;64.50
37806;DHT22;25082;50.870;0.022;2023-12-20T01:31:23;18.20;64.60
37806;DHT22;25082;50.870;0.022;2023-12-20T01:33:49;18.20;64.50
37806;DHT22;25082;50.870;0.022;2023-12-20T01:36:15;18.20;64.50
37806;DHT22;25082;50.870;0.022;2023-12-20T01:38:40;18.20;64.60
37806;DHT22;25082;50.870;0.022;2023-12-20T01:41:06;18.20;64.50
37806;DHT22;25082;50.870;0.022;2023-12-20T01:43:32;18.20;64.60
37806;DHT22;25082;50.870;0.022;2023-12-20T01:45:58;18.20;64.50
37806;DHT22;25082;50.870;0.022;2023-12-20T01:48:25;18.20;64.60
37806;DHT22;25082;50.870;0.022;2023-12-20T01:50:51;18.20;64.50
37806;DHT22;25082;50.870;0.022;2023-12-20T01:53:19;18.10;64.50
37806;DHT22;25082;50.870;0.022;2023-12-20T01:55:46;18.10;64.40
37806;DHT22;25082;50.870;0.022;2023-12-20T01:58:14;18.10;64.50
37806;DHT22;25082;50.870;0.022;2023-12-20T02:00:41;18.10;64.60
37806;DHT22;25082;50.870;0.022;2023-12-20T02:03:06;18.10;64.50
37806;DHT22;25082;50.870;0.022;2023-12-20T02:05:34;18.10;64.50
37806;DHT22;25082;50.870;0.022;2023-12-20T02:08:01;18.10;64.50
37806;DHT22;25082;50.870;0.022;2023-12-20T02:10:27;18.10;64.50
37806;DHT22;25082;50.870;0.022;2023-12-20T02:12:54;18.10;64.50
37806;DHT22;25082;50.870;0.022;2023-12-20T02:15:20;18.00;64.50
37806;DHT22;25082;50.870;0.022;2023-12-20T02:17:47;18.00;64.50
37806;DHT22;25082;50.870;0.022;2023-12-20T02:20:14;18.00;64.60
37806;DHT22;25082;50.870;0.022;2023-12-20T02:22:39;18.00;64.50
37806;DHT22;25082;50.870;0.022;2023-12-20T02:25:05;18.00;64.60
37806;DHT22;25082;50.870;0.022;2023-12-20T02:27:31;18.00;64.50
37806;DHT22;25082;50.870;0.022;2023-12-20T02:29:57;18.00;64.60
37806;DHT22;25082;50.870;0.022;2023-12-20T02:32:24;18.00;64.60
37806;DHT22;25082;50.870;0.022;2023-12-20T02:34:54;18.00;64.60
37806;DHT22;25082;50.870;0.022;2023-12-20T02:37:20;18.00;64.60
37806;DHT22;25082;50.870;0.022;2023-12-20T02:39:46;17.90;64.50
37806;DHT22;25082;50.870;0.022;2023-12-20T02:42:11;17.90;64.50
37806;DHT22;25082;50.870;0.022;2023-12-20T02:44:37;17.90;64.50
37806;DHT22;25082;50.870;0.022;2023-12-20T02:47:03;17.90;64.50
37806;DHT22;25082;50.870;0.022;2023-12-20T02:49:29;17.90;64.50
37806;DHT22;25082;50.870;0.022;2023-12-20T02:51:54;17.90;64.60
37806;DHT22;25082;50.870;0.022;2023-12-20T02:54:20;17.90;64.50
37806;DHT22;25082;50.870;0.022;2023-12-20T02:56:47;17.90;64.60
37806;DHT22;25082;50.870;0.022;2023-12-20T02:59:13;17.90;64.60
37806;DHT22;25082;50.870;0.022;2023-12-20T03:01:44;17.90;64.60
37806;DHT22;25082;50.870;0.022;2023-12-20T03:04:10;17.90;64.60
37806;DHT22;25082;50.870;0.022;2023-12-20T03:06:36;17.80;64.50
37806;DHT22;25082;50.870;0.022;2023-12-20T03:09:02;17.90;64.60
37806;DHT22;25082;50.870;0.022;2023-12-20T03:11:27;17.80;64.50
37806;DHT22;25082;50.870;0.022;2023-12-20T03:13:57;17.80;64.60
37806;DHT22;25082;50.870;0.022;2023-12-20T03:16:23;17.80;64.50
37806;DHT22;25082;50.870;0.022;2023-12-20T03:18:49;17.80;64.60
37806;DHT22;25082;50.870;0.022;2023-12-20T03:21:15;17.80;64.60
37806;DHT22;25082;50.870;0.022;2023-12-20T03:23:41;17.80;64.50
37806;DHT22;25082;50.870;0.022;2023-12-20T03:26:08;17.80;64.50
37806;DHT22;25082;50.870;0.022;2023-12-20T03:28:34;17.70;64.50
37806;DHT22;25082;50.870;0.022;2023-12-20T03:31:01;17.80;64.50
37806;DHT22;25082;50.870;0.022;2023-12-20T03:33:28;17.70;64.50
37806;DHT22;25082;50.870;0.022;2023-12-20T03:35:53;17.70;64.50
37806;DHT22;25082;50.870;0.022;2023-12-20T03:38:20;17.70;64.50
37806;DHT22;25082;50.870;0.022;2023-12-20T03:40:45;17.70;64.50
37806;DHT22;25082;50.870;0.022;2023-12-20T03:43:11;17.70;64.50
37806;DHT22;25082;50.870;0.022;2023-12-20T03:45:37;17.70;64.50
37806;DHT22;25082;50.870;0.022;2023-12-20T03:48:03;17.70;64.60
37806;DHT22;25082;50.870;0.022;2023-12-20T03:50:29;17.60;64.50
37806;DHT22;25082;50.870;0.022;2023-12-20T03:52:54;17.70;64.50
37806;DHT22;25082;50.870;0.022;2023-12-20T03:55:20;17.70;64.50
37806;DHT22;25082;50.870;0.022;2023-12-20T03:57:49;17.70;64.50
37806;DHT22;25082;50.870;0.022;2023-12-20T04:00:15;17.70;64.50
37806;DHT22;25082;50.870;0.022;2023-12-20T04:02:42;17.60;64.50
37806;DHT22;25082;50.870;0.022;2023-12-20T04:05:08;17.70;64.50
37806;DHT22;25082;50.870;0.022;2023-12-20T04:07:35;17.60;64.40
37806;DHT22;25082;50.870;0.022;2023-12-20T04:10:02;17.60;64.40
37806;DHT22;25082;50.870;0.022;2023-12-20T04:12:29;17.60;64.40
37806;DHT22;25082;50.870;0.022;2023-12-20T04:14:55;17.60;64.40
37806;DHT22;25082;50.870;0.022;2023-12-20T04:17:20;17.60;64.40
37806;DHT22;25082;50.870;0.022;2023-12-20T04:19:49;17.60;64.40
37806;DHT22;25082;50.870;0.022;2023-12-20T04:22:15;17.60;64.40
37806;DHT22;25082;50.870;0.022;2023-12-20T04:24:40;17.60;64.40
37806;DHT22;25082;50.870;0.022;2023-12-20T04:27:08;17.60;64.40
37806;DHT22;25082;50.870;0.022;2023-12-20T04:29:34;17.60;64.40
37806;DHT22;25082;50.870;0.022;2023-12-20T04:31:59;17.60;64.40
37806;DHT22;25082;50.870;0.022;2023-12-20T04:34:25;17.50;64.30
37806;DHT22;25082;50.870;0.022;2023-12-20T04:36:52;17.50;64.30
37806;DHT22;25082;50.870;0.022;2023-12-20T04:39:18;17.50;64.30
37806;DHT22;25082;50.870;0.022;2023-12-20T04:41:43;17.50;64.30
37806;DHT22;25082;50.870;0.022;2023-12-20T04:44:09;17.50;64.30
37806;DHT22;25082;50.870;0.022;2023-12-20T04:46:35;17.50;64.30
37806;DHT22;25082;50.870;0.022;2023-12-20T04:49:01;17.50;64.30
37806;DHT22;25082;50.870;0.022;2023-12-20T04:51:27;17.50;64.30
37806;DHT22;25082;50.870;0.022;2023-12-20T04:53:53;17.50;64.30
37806;DHT22;25082;50.870;0.022;2023-12-20T04:56:18;17.50;64.30
37806;DHT22;25082;50.870;0.022;2023-12-20T04:58:44;17.40;64.20
37806;DHT22;25082;50.870;0.022;2023-12-20T05:01:10;17.40;64.20
37806;DHT22;25082;50.870;0.022;2023-12-20T05:03:37;17.40;64.20
37806;DHT22;25082;50.870;0.022;2023-12-20T05:06:03;17.40;64.20
37806;DHT22;25082;50.870;0.022;2023-12-20T05:08:29;17.40;64.20
37806;DHT22;25082;50.870;0.022;2023-12-20T05:10:55;17.40;64.20
37806;DHT22;25082;50.870;0.022;2023-12-20T05:13:21;17.40;64.20
37806;DHT22;25082;50.870;0.022;2023-12-20T05:15:46;17.40;64.20
37806;DHT22;25082;50.870;0.022;2023-12-20T05:18:13;17.40;64.20
37806;DHT22;25082;50.870;0.022;2023-12-20T05:20:41;17.40;64.30
37806;DHT22;25082;50.870;0.022;2023-12-20T05:23:07;17.40;64.20
37806;DHT22;25082;50.870;0.022;2023-12-20T05:25:33;17.30;64.10
37806;DHT22;25082;50.870;0.022;2023-12-20T05:27:59;17.30;64.20
37806;DHT22;25082;50.870;0.022;2023-12-20T05:30:24;17.30;64.20
37806;DHT22;25082;50.870;0.022;2023-12-20T05:32:50;17.40;64.20
37806;DHT22;25082;50.870;0.022;2023-12-20T05:35:16;17.30;64.20
37806;DHT22;25082;50.870;0.022;2023-12-20T05:37:42;17.30;64.20
37806;DHT22;25082;50.870;0.022;2023-12-20T05:40:08;17.30;64.20
37806;DHT22;25082;50.870;0.022;2023-12-20T05:42:37;17.30;64.20
37806;DHT22;25082;50.870;0.022;2023-12-20T05:45:04;17.30;64.20
37806;DHT22;25082;50.870;0.022;2023-12-20T05:47:30;17.30;64.20
37806;DHT22;25082;50.870;0.022;2023-12-20T05:49:56;17.30;64.20
37806;DHT22;25082;50.870;0.022;2023-12-20T05:52:22;17.30;64.20
37806;DHT22;25082;50.870;0.022;2023-12-20T05:54:48;17.30;64.20
37806;DHT22;25082;50.870;0.022;2023-12-20T05:57:13;17.30;64.20
37806;DHT22;25082;50.870;0.022;2023-12-20T05:59:39;17.20;64.10
37806;DHT22;25082;50.870;0.022;2023-12-20T06:02:05;17.20;64.10
37806;DHT22;25082;50.870;0.022;2023-12-20T06:04:31;17.30;64.10
37806;DHT22;25082;50.870;0.022;2023-12-20T06:06:57;17.30;64.10
37806;DHT22;25082;50.870;0.022;2023-12-20T06:09:23;17.20;64.10
37806;DHT22;25082;50.870;0.022;2023-12-20T06:11:49;17.20;64.10
37806;DHT22;25082;50.870;0.022;2023-12-20T06:14:15;17.20;64.10
37806;DHT22;25082;50.870;0.022;2023-12-20T06:16:41;17.20;64.10
37806;DHT22;25082;50.870;0.022;2023-12-20T06:19:06;17.20;64.10
37806;DHT22;25082;50.870;0.022;2023-12-20T06:21:32;17.20;64.10
37806;DHT22;25082;50.870;0.022;2023-12-20T06:23:59;17.20;64.10
37806;DHT22;25082;50.870;0.022;2023-12-20T06:26:25;17.20;64.10
37806;DHT22;25082;50.870;0.022;2023-12-20T06:28:51;17.20;64.10
37806;DHT22;25082;50.870;0.022;2023-12-20T06:31:17;17.10;64.10
37806;DHT22;25082;50.870;0.022;2023-12-20T06:33:43;17.10;64.10
37806;DHT22;25082;50.870;0.022;2023-12-20T06:36:12;17.10;64.10
37806;DHT22;25082;50.870;0.022;2023-12-20T06:38:41;17.10;64.10
37806;DHT22;25082;50.870;0.022;2023-12-20T06:41:07;17.10;64.10
37806;DHT22;25082;50.870;0.022;2023-12-20T06:43:33;17.10;64.10
37806;DHT22;25082;50.870;0.022;2023-12-20T06:46:00;17.10;64.20
37806;DHT22;25082;50.870;0.022;2023-12-20T06:48:26;17.10;64.20
37806;DHT22;25082;50.870;0.022;2023-12-20T06:50:52;17.10;64.10
37806;DHT22;25082;50.870;0.022;2023-12-20T06:53:18;17.10;64.10
37806;DHT22;25082;50.870;0.022;2023-12-20T06:55:43;17.10;64.10
37806;DHT22;25082;50.870;0.022;2023-12-20T06:58:09;17.10;64.20
37806;DHT22;25082;50.870;0.022;2023-12-20T07:00:35;17.10;64.20
37806;DHT22;25082;50.870;0.022;2023-12-20T07:03:01;17.10;64.20
37806;DHT22;25082;50.870;0.022;2023-12-20T07:05:26;17.10;64.20
37806;DHT22;25082;50.870;0.022;2023-12-20T07:07:52;17.10;64.20
37806;DHT22;25082;50.870;0.022;2023-12-20T07:10:18;17.10;64.20
37806;DHT22;25082;50.870;0.022;2023-12-20T07:12:44;17.00;64.20
37806;DHT22;25082;50.870;0.022;2023-12-20T07:15:10;17.00;64.10
37806;DHT22;25082;50.870;0.022;2023-12-20T07:17:37;17.00;64.20
37806;DHT22;25082;50.870;0.022;2023-12-20T07:20:03;17.00;64.20
37806;DHT22;25082;50.870;0.022;2023-12-20T07:22:33;17.00;64.10
37806;DHT22;25082;50.870;0.022;2023-12-20T07:24:59;17.00;64.10
37806;DHT22;25082;50.870;0.022;2023-12-20T07:27:26;17.00;64.20
37806;DHT22;25082;50.870;0.022;2023-12-20T07:29:52;17.00;64.20
37806;DHT22;25082;50.870;0.022;2023-12-20T07:32:18;17.00;64.20
37806;DHT22;25082;50.870;0.022;2023-12-20T07:34:44;17.00;64.00
37806;DHT22;25082;50.870;0.022;2023-12-20T07:37:10;17.00;64.10
37806;DHT22;25082;50.870;0.022;2023-12-20T07:39:40;17.10;64.20
37806;DHT22;25082;50.870;0.022;2023-12-20T07:42:09;17.10;64.20
37806;DHT22;25082;50.870;0.022;2023-12-20T07:44:35;17.00;64.20
37806;DHT22;25082;50.870;0.022;2023-12-20T07:47:04;17.10;64.30
37806;DHT22;25082;50.870;0.022;2023-12-20T07:49:33;17.10;64.30
37806;DHT22;25082;50.870;0.022;2023-12-20T07:51:58;17.10;64.10
37806;DHT22;25082;50.870;0.022;2023-12-20T07:54:24;17.20;64.00
37806;DHT22;25082;50.870;0.022;2023-12-20T07:56:50;17.20;64.00
37806;DHT22;25082;50.870;0.022;2023-12-20T07:59:16;17.20;63.90
37806;DHT22;25082;50.870;0.022;2023-12-20T08:01:41;17.20;64.00
37806;DHT22;25082;50.870;0.022;2023-12-20T08:04:08;17.20;64.00
37806;DHT22;25082;50.870;0.022;2023-12-20T08:06:34;17.30;64.10
37806;DHT22;25082;50.870;0.022;2023-12-20T08:08:59;17.30;64.10
37806;DHT22;25082;50.870;0.022;2023-12-20T08:11:25;17.30;64.10
37806;DHT22;25082;50.870;0.022;2023-12-20T08:13:51;17.30;64.10
37806;DHT22;25082;50.870;0.022;2023-12-20T08:16:16;17.30;64.10
37806;DHT22;25082;50.870;0.022;2023-12-20T08:18:43;17.30;64.20
37806;DHT22;25082;50.870;0.022;2023-12-20T08:21:09;17.40;64.30
37806;DHT22;25082;50.870;0.022;2023-12-20T08:23:35;17.40;64.30
37806;DHT22;25082;50.870;0.022;2023-12-20T08:26:07;17.40;64.30
37806;DHT22;25082;50.870;0.022;2023-12-20T08:28:34;17.40;64.30
37806;DHT22;25082;50.870;0.022;2023-12-20T08:31:00;17.40;64.40
37806;DHT22;25082;50.870;0.022;2023-12-20T08:33:26;17.50;64.50
37806;DHT22;25082;50.870;0.022;2023-12-20T08:35:51;17.50;64.50
37806;DHT22;25082;50.870;0.022;2023-12-20T08:38:17;17.50;64.60
37806;DHT22;25082;50.870;0.022;2023-12-20T08:40:43;17.60;64.70
37806;DHT22;25082;50.870;0.022;2023-12-20T08:43:09;17.50;64.60
37806;DHT22;25082;50.870;0.022;2023-12-20T08:45:35;17.50;64.60
37806;DHT22;25082;50.870;0.022;2023-12-20T08:48:01;17.60;64.70
37806;DHT22;25082;50.870;0.022;2023-12-20T08:50:27;17.60;64.70
37806;DHT22;25082;50.870;0.022;2023-12-20T08:52:53;17.60;64.70
37806;DHT22;25082;50.870;0.022;2023-12-20T08:55:19;17.70;64.70
37806;DHT22;25082;50.870;0.022;2023-12-20T08:57:45;17.60;64.60
37806;DHT22;25082;50.870;0.022;2023-12-20T09:00:11;17.70;64.70
37806;DHT22;25082;50.870;0.022;2023-12-20T09:02:37;17.70;64.70
37806;DHT22;25082;50.870;0.022;2023-12-20T09:05:03;17.70;64.60
37806;DHT22;25082;50.870;0.022;2023-12-20T09:07:29;17.80;64.70
37806;DHT22;25082;50.870;0.022;2023-12-20T09:09:58;17.70;64.70
37806;DHT22;25082;50.870;0.022;2023-12-20T09:12:24;17.80;64.70
37806;DHT22;25082;50.870;0.022;2023-12-20T09:14:51;17.80;64.70
37806;DHT22;25082;50.870;0.022;2023-12-20T09:17:18;17.80;64.60
37806;DHT22;25082;50.870;0.022;2023-12-20T09:19:44;17.80;64.60
37806;DHT22;25082;50.870;0.022;2023-12-20T09:22:10;17.80;64.60
37806;DHT22;25082;50.870;0.022;2023-12-20T09:24:36;17.80;64.60
37806;DHT22;25082;50.870;0.022;2023-12-20T09:27:02;17.90;64.60
37806;DHT22;25082;50.870;0.022;2023-12-20T09:29:28;17.90;64.70
37806;DHT22;25082;50.870;0.022;2023-12-20T09:31:54;17.90;64.70
37806;DHT22;25082;50.870;0.022;2023-12-20T09:34:20;17.90;64.70
37806;DHT22;25082;50.870;0.022;2023-12-20T09:36:46;18.00;64.70
37806;DHT22;25082;50.870;0.022;2023-12-20T09:39:17;18.00;64.70
37806;DHT22;25082;50.870;0.022;2023-12-20T09:42:07;18.00;64.70
37806;DHT22;25082;50.870;0.022;2023-12-20T09:44:34;18.00;64.70
37806;DHT22;25082;50.870;0.022;2023-12-20T09:47:03;18.00;64.70
37806;DHT22;25082;50.870;0.022;2023-12-20T09:49:29;18.00;64.70
37806;DHT22;25082;50.870;0.022;2023-12-20T09:51:56;18.10;64.70
37806;DHT22;25082;50.870;0.022;2023-12-20T09:54:23;18.10;64.70
37806;DHT22;25082;50.870;0.022;2023-12-20T09:56:49;18.10;64.70
37806;DHT22;25082;50.870;0.022;2023-12-20T09:59:15;18.10;64.70
37806;DHT22;25082;50.870;0.022;2023-12-20T10:01:42;18.10;64.70
37806;DHT22;25082;50.870;0.022;2023-12-20T10:04:09;18.10;64.60
37806;DHT22;25082;50.870;0.022;2023-12-20T10:06:41;18.20;64.70
37806;DHT22;25082;50.870;0.022;2023-12-20T10:09:08;18.20;64.70
37806;DHT22;25082;50.870;0.022;2023-12-20T10:11:38;18.20;64.70
37806;DHT22;25082;50.870;0.022;2023-12-20T10:14:05;18.20;65.20
37806;DHT22;25082;50.870;0.022;2023-12-20T10:16:31;18.20;64.60
37806;DHT22;25082;50.870;0.022;2023-12-20T10:18:58;18.30;64.60
37806;DHT22;25082;50.870;0.022;2023-12-20T10:21:24;18.30;64.60
37806;DHT22;25082;50.870;0.022;2023-12-20T10:23:52;18.30;64.60
37806;DHT22;25082;50.870;0.022;2023-12-20T10:26:23;18.30;64.60
37806;DHT22;25082;50.870;0.022;2023-12-20T10:29:00;18.30;64.60
37806;DHT22;25082;50.870;0.022;2023-12-20T10:31:33;18.30;64.60
37806;DHT22;25082;50.870;0.022;2023-12-20T10:34:00;18.30;64.60
37806;DHT22;25082;50.870;0.022;2023-12-20T10:36:28;18.30;64.60
37806;DHT22;25082;50.870;0.022;2023-12-20T10:38:55;18.30;64.60
37806;DHT22;25082;50.870;0.022;2023-12-20T10:41:27;18.40;64.70
37806;DHT22;25082;50.870;0.022;2023-12-20T10:43:59;18.40;64.70
37806;DHT22;25082;50.870;0.022;2023-12-20T10:46:27;18.40;64.70
37806;DHT22;25082;50.870;0.022;2023-12-20T10:48:54;18.40;64.90
37806;DHT22;25082;50.870;0.022;2023-12-20T10:51:21;18.40;64.80
37806;DHT22;25082;50.870;0.022;2023-12-20T10:53:48;18.40;64.90
37806;DHT22;25082;50.870;0.022;2023-12-20T10:56:19;18.40;64.90
37806;DHT22;25082;50.870;0.022;2023-12-20T10:58:48;18.40;64.90
37806;DHT22;25082;50.870;0.022;2023-12-20T11:01:16;18.40;64.90
37806;DHT22;25082;50.870;0.022;2023-12-20T11:04:08;18.50;64.90
37806;DHT22;25082;50.870;0.022;2023-12-20T11:06:36;18.50;64.90
37806;DHT22;25082;50.870;0.022;2023-12-20T11:09:20;18.50;64.80
37806;DHT22;25082;50.870;0.022;2023-12-20T11:14:54;18.50;64.80
37806;DHT22;25082;50.870;0.022;2023-12-20T11:17:26;18.50;64.70
37806;DHT22;25082;50.870;0.022;2023-12-20T11:22:22;18.50;64.70
37806;DHT22;25082;50.870;0.022;2023-12-20T11:24:48;18.50;64.70
37806;DHT22;25082;50.870;0.022;2023-12-20T11:27:15;18.60;65.20
37806;DHT22;25082;50.870;0.022;2023-12-20T11:29:41;18.50;65.30
37806;DHT22;25082;50.870;0.022;2023-12-20T11:34:55;18.50;66.30
37806;DHT22;25082;50.870;0.022;2023-12-20T11:37:21;18.60;66.70
37806;DHT22;25082;50.870;0.022;2023-12-20T11:39:55;18.60;67.70
37806;DHT22;25082;50.870;0.022;2023-12-20T11:42:22;18.60;67.40
37806;DHT22;25082;50.870;0.022;2023-12-20T11:44:48;18.50;67.40
37806;DHT22;25082;50.870;0.022;2023-12-20T11:47:13;18.60;67.60
37806;DHT22;25082;50.870;0.022;2023-12-20T11:49:41;18.50;67.60
37806;DHT22;25082;50.870;0.022;2023-12-20T11:52:07;18.60;67.70
37806;DHT22;25082;50.870;0.022;2023-12-20T11:54:32;18.60;67.80
37806;DHT22;25082;50.870;0.022;2023-12-20T11:56:58;18.60;67.80
37806;DHT22;25082;50.870;0.022;2023-12-20T11:59:24;18.50;67.90
37806;DHT22;25082;50.870;0.022;2023-12-20T12:01:50;18.50;68.00
37806;DHT22;25082;50.870;0.022;2023-12-20T12:04:16;18.50;68.00
37806;DHT22;25082;50.870;0.022;2023-12-20T12:06:44;18.60;68.00
37806;DHT22;25082;50.870;0.022;2023-12-20T12:09:10;18.60;68.20
37806;DHT22;25082;50.870;0.022;2023-12-20T12:11:36;18.60;68.10
37806;DHT22;25082;50.870;0.022;2023-12-20T12:14:02;18.60;68.10
37806;DHT22;25082;50.870;0.022;2023-12-20T12:16:29;18.60;68.20
37806;DHT22;25082;50.870;0.022;2023-12-20T12:18:58;18.60;68.20
37806;DHT22;25082;50.870;0.022;2023-12-20T12:21:25;18.60;68.20
37806;DHT22;25082;50.870;0.022;2023-12-20T12:23:51;18.60;68.20
37806;DHT22;25082;50.870;0.022;2023-12-20T12:26:17;18.60;68.30
37806;DHT22;25082;50.870;0.022;2023-12-20T12:28:42;18.60;68.30
37806;DHT22;25082;50.870;0.022;2023-12-20T12:31:12;18.60;68.30
37806;DHT22;25082;50.870;0.022;2023-12-20T12:33:39;18.60;68.30
37806;DHT22;25082;50.870;0.022;2023-12-20T12:36:07;18.60;68.50
37806;DHT22;25082;50.870;0.022;2023-12-20T12:38:33;18.60;68.40
37806;DHT22;25082;50.870;0.022;2023-12-20T12:41:00;18.60;68.20
37806;DHT22;25082;50.870;0.022;2023-12-20T12:43:26;18.60;68.00
37806;DHT22;25082;50.870;0.022;2023-12-20T12:45:52;18.60;67.90
37806;DHT22;25082;50.870;0.022;2023-12-20T12:48:18;18.70;67.90
37806;DHT22;25082;50.870;0.022;2023-12-20T12:50:45;18.70;68.00
37806;DHT22;25082;50.870;0.022;2023-12-20T12:53:11;18.80;67.90
37806;DHT22;25082;50.870;0.022;2023-12-20T12:55:37;18.80;67.70
37806;DHT22;25082;50.870;0.022;2023-12-20T12:58:03;18.90;67.50
37806;DHT22;25082;50.870;0.022;2023-12-20T13:00:28;19.00;67.30
37806;DHT22;25082;50.870;0.022;2023-12-20T13:02:54;19.40;67.00
37806;DHT22;25082;50.870;0.022;2023-12-20T13:05:20;19.90;65.80
37806;DHT22;25082;50.870;0.022;2023-12-20T13:07:46;20.70;64.30
37806;DHT22;25082;50.870;0.022;2023-12-20T13:10:12;21.40;62.00
37806;DHT22;25082;50.870;0.022;2023-12-20T13:12:37;21.60;61.00
37806;DHT22;25082;50.870;0.022;2023-12-20T13:15:03;21.30;60.70
37806;DHT22;25082;50.870;0.022;2023-12-20T13:17:29;21.00;62.60
37806;DHT22;25082;50.870;0.022;2023-12-20T13:19:55;20.70;64.50
37806;DHT22;25082;50.870;0.022;2023-12-20T13:22:21;20.30;66.80
37806;DHT22;25082;50.870;0.022;2023-12-20T13:24:47;20.10;69.10
37806;DHT22;25082;50.870;0.022;2023-12-20T13:27:13;19.90;70.80
37806;DHT22;25082;50.870;0.022;2023-12-20T13:29:38;19.80;70.90
37806;DHT22;25082;50.870;0.022;2023-12-20T13:32:04;19.60;70.40
37806;DHT22;25082;50.870;0.022;2023-12-20T13:34:30;19.50;71.20
37806;DHT22;25082;50.870;0.022;2023-12-20T13:36:56;19.50;71.30
37806;DHT22;25082;50.870;0.022;2023-12-20T13:39:22;19.60;71.00
37806;DHT22;25082;50.870;0.022;2023-12-20T13:41:47;19.60;70.80
37806;DHT22;25082;50.870;0.022;2023-12-20T13:44:13;19.70;71.10
37806;DHT22;25082;50.870;0.022;2023-12-20T13:46:42;20.00;70.40
37806;DHT22;25082;50.870;0.022;2023-12-20T13:49:08;20.20;69.90
37806;DHT22;25082;50.870;0.022;2023-12-20T13:51:34;20.20;68.70
37806;DHT22;25082;50.870;0.022;2023-12-20T13:54:00;20.20;68.70
37806;DHT22;25082;50.870;0.022;2023-12-20T13:56:26;20.10;68.70
37806;DHT22;25082;50.870;0.022;2023-12-20T13:58:52;20.00;69.00
37806;DHT22;25082;50.870;0.022;2023-12-20T14:01:17;19.80;69.80
37806;DHT22;25082;50.870;0.022;2023-12-20T14:03:43;19.70;69.50
37806;DHT22;25082;50.870;0.022;2023-12-20T14:06:09;19.60;69.60
37806;DHT22;25082;50.870;0.022;2023-12-20T14:08:35;19.50;69.70
37806;DHT22;25082;50.870;0.022;2023-12-20T14:11:01;19.50;69.90
37806;DHT22;25082;50.870;0.022;2023-12-20T14:13:27;19.40;70.00
37806;DHT22;25082;50.870;0.022;2023-12-20T14:15:53;19.40;70.10
37806;DHT22;25082;50.870;0.022;2023-12-20T14:18:20;19.40;70.10
37806;DHT22;25082;50.870;0.022;2023-12-20T14:20:47;19.30;70.00
37806;DHT22;25082;50.870;0.022;2023-12-20T14:23:13;19.30;70.00
37806;DHT22;25082;50.870;0.022;2023-12-20T14:25:41;19.30;70.10
37806;DHT22;25082;50.870;0.022;2023-12-20T14:28:07;19.20;69.90
37806;DHT22;25082;50.870;0.022;2023-12-20T14:30:33;19.30;69.80
37806;DHT22;25082;50.870;0.022;2023-12-20T14:33:00;19.30;69.70
37806;DHT22;25082;50.870;0.022;2023-12-20T14:35:26;19.20;69.50
37806;DHT22;25082;50.870;0.022;2023-12-20T14:37:51;19.30;69.40
37806;DHT22;25082;50.870;0.022;2023-12-20T14:40:19;19.30;69.40
37806;DHT22;25082;50.870;0.022;2023-12-20T14:42:45;19.20;69.30
37806;DHT22;25082;50.870;0.022;2023-12-20T14:45:12;19.30;69.30
37806;DHT22;25082;50.870;0.022;2023-12-20T14:47:41;19.30;69.30
37806;DHT22;25082;50.870;0.022;2023-12-20T14:50:07;19.30;69.20
37806;DHT22;25082;50.870;0.022;2023-12-20T14:52:33;19.20;68.90
37806;DHT22;25082;50.870;0.022;2023-12-20T14:55:03;19.20;68.80
37806;DHT22;25082;50.870;0.022;2023-12-20T14:57:29;19.20;68.80
37806;DHT22;25082;50.870;0.022;2023-12-20T14:59:57;19.30;68.80
37806;DHT22;25082;50.870;0.022;2023-12-20T15:02:23;19.20;68.70
37806;DHT22;25082;50.870;0.022;2023-12-20T15:04:48;19.20;68.80
37806;DHT22;25082;50.870;0.022;2023-12-20T15:07:16;19.20;68.70
37806;DHT22;25082;50.870;0.022;2023-12-20T15:09:42;19.20;68.80
37806;DHT22;25082;50.870;0.022;2023-12-20T15:12:11;19.20;68.80
37806;DHT22;25082;50.870;0.022;2023-12-20T15:14:38;19.20;68.70
37806;DHT22;25082;50.870;0.022;2023-12-20T15:17:03;19.20;68.70
37806;DHT22;25082;50.870;0.022;2023-12-20T15:19:30;19.20;68.70
37806;DHT22;25082;50.870;0.022;2023-12-20T15:21:56;19.20;68.70
37806;DHT22;25082;50.870;0.022;2023-12-20T15:24:24;19.20;69.40
37806;DHT22;25082;50.870;0.022;2023-12-20T15:26:54;19.20;68.80
37806;DHT22;25082;50.870;0.022;2023-12-20T15:29:21;19.20;68.80
37806;DHT22;25082;50.870;0.022;2023-12-20T15:31:47;19.20;68.80
37806;DHT22;25082;50.870;0.022;2023-12-20T15:34:13;19.20;68.80